sensor_id;sensor_type;location;lat;lon;timestamp;P1;durP1;ratioP1;P2;durP2;ratioP2
15230;SDS011;32569;51.762;8.564;2022-12-07T00:01:41;53.43;;;33.27;;
15230;SDS011;32569;51.762;8.564;2022-12-07T00:04:10;58.27;;;33.60;;
15230;SDS011;32569;51.762;8.564;2022-12-07T00:06:38;54.93;;;33.07;;
15230;SDS011;32569;51.762;8.564;2022-12-07T00:09:09;52.00;;;33.27;;
15230;SDS011;32569;51.762;8.564;2022-12-07T00:11:37;61.63;;;35.23;;
15230;SDS011;32569;51.762;8.564;2022-12-07T00:14:04;58.30;;;34.67;;
15230;SDS011;32569;51.762;8.564;2022-12-07T00:16:33;60.17;;;34.97;;
15230;SDS011;32569;51.762;8.564;2022-12-07T00:19:02;56.10;;;34.73;;
15230;SDS011;32569;51.762;8.564;2022-12-07T00:21:30;55.63;;;34.53;;
15230;SDS011;32569;51.762;8.564;2022-12-07T00:23:58;59.23;;;35.00;;
15230;SDS011;32569;51.762;8.564;2022-12-07T00:26:26;59.93;;;36.23;;
15230;SDS011;32569;51.762;8.564;2022-12-07T00:28:55;59.93;;;36.07;;
15230;SDS011;32569;51.762;8.564;2022-12-07T00:31:23;67.47;;;41.03;;
15230;SDS011;32569;51.762;8.564;2022-12-07T00:33:52;76.67;;;42.00;;
15230;SDS011;32569;51.762;8.564;2022-12-07T00:36:20;67.90;;;41.87;;
15230;SDS011;32569;51.762;8.564;2022-12-07T00:38:51;63.27;;;40.30;;
15230;SDS011;32569;51.762;8.564;2022-12-07T00:41:19;72.87;;;38.47;;
15230;SDS011;32569;51.762;8.564;2022-12-07T00:43:47;60.70;;;36.67;;
15230;SDS011;32569;51.762;8.564;2022-12-07T00:46:15;63.97;;;36.70;;
15230;SDS011;32569;51.762;8.564;2022-12-07T00:48:42;67.40;;;35.57;;
15230;SDS011;32569;51.762;8.564;2022-12-07T00:51:09;62.07;;;36.43;;
15230;SDS011;32569;51.762;8.564;2022-12-07T00:53:39;61.13;;;36.17;;
15230;SDS011;32569;51.762;8.564;2022-12-07T00:56:06;62.87;;;36.03;;
15230;SDS011;32569;51.762;8.564;2022-12-07T00:58:34;62.70;;;37.20;;
15230;SDS011;32569;51.762;8.564;2022-12-07T01:01:01;63.03;;;36.80;;
15230;SDS011;32569;51.762;8.564;2022-12-07T01:03:29;58.87;;;36.03;;
15230;SDS011;32569;51.762;8.564;2022-12-07T01:05:56;60.60;;;36.37;;
15230;SDS011;32569;51.762;8.564;2022-12-07T01:08:23;59.37;;;34.67;;
15230;SDS011;32569;51.762;8.564;2022-12-07T01:10:58;61.27;;;36.07;;
15230;SDS011;32569;51.762;8.564;2022-12-07T01:13:26;59.27;;;35.30;;
15230;SDS011;32569;51.762;8.564;2022-12-07T01:15:55;63.57;;;36.53;;
15230;SDS011;32569;51.762;8.564;2022-12-07T01:18:24;60.10;;;35.43;;
15230;SDS011;32569;51.762;8.564;2022-12-07T01:20:58;61.03;;;36.83;;
15230;SDS011;32569;51.762;8.564;2022-12-07T01:23:26;62.80;;;35.53;;
15230;SDS011;32569;51.762;8.564;2022-12-07T01:25:55;56.60;;;34.17;;
15230;SDS011;32569;51.762;8.564;2022-12-07T01:28:24;55.90;;;34.43;;
15230;SDS011;32569;51.762;8.564;2022-12-07T01:30:55;60.03;;;35.20;;
15230;SDS011;32569;51.762;8.564;2022-12-07T01:33:23;58.43;;;35.47;;
15230;SDS011;32569;51.762;8.564;2022-12-07T01:35:49;59.43;;;33.93;;
15230;SDS011;32569;51.762;8.564;2022-12-07T01:38:17;57.03;;;35.17;;
15230;SDS011;32569;51.762;8.564;2022-12-07T01:40:44;58.17;;;34.57;;
15230;SDS011;32569;51.762;8.564;2022-12-07T01:43:13;58.67;;;36.80;;
15230;SDS011;32569;51.762;8.564;2022-12-07T01:45:45;54.30;;;34.77;;
15230;SDS011;32569;51.762;8.564;2022-12-07T01:48:12;54.80;;;32.63;;
15230;SDS011;32569;51.762;8.564;2022-12-07T01:50:44;55.47;;;33.00;;
15230;SDS011;32569;51.762;8.564;2022-12-07T01:53:13;50.80;;;33.03;;
15230;SDS011;32569;51.762;8.564;2022-12-07T01:55:43;51.53;;;32.37;;
15230;SDS011;32569;51.762;8.564;2022-12-07T01:58:12;55.70;;;32.97;;
15230;SDS011;32569;51.762;8.564;2022-12-07T02:00:40;55.03;;;31.40;;
15230;SDS011;32569;51.762;8.564;2022-12-07T02:03:10;49.10;;;31.43;;
15230;SDS011;32569;51.762;8.564;2022-12-07T02:05:41;49.10;;;31.40;;
15230;SDS011;32569;51.762;8.564;2022-12-07T02:08:09;50.40;;;31.33;;
15230;SDS011;32569;51.762;8.564;2022-12-07T02:10:38;51.13;;;31.27;;
15230;SDS011;32569;51.762;8.564;2022-12-07T02:13:06;49.83;;;30.50;;
15230;SDS011;32569;51.762;8.564;2022-12-07T02:15:45;50.77;;;30.60;;
15230;SDS011;32569;51.762;8.564;2022-12-07T02:18:31;47.77;;;29.37;;
15230;SDS011;32569;51.762;8.564;2022-12-07T02:21:20;46.10;;;30.30;;
15230;SDS011;32569;51.762;8.564;2022-12-07T02:27:06;45.30;;;28.10;;
15230;SDS011;32569;51.762;8.564;2022-12-07T02:29:42;43.20;;;28.60;;
15230;SDS011;32569;51.762;8.564;2022-12-07T02:32:18;43.63;;;28.57;;
15230;SDS011;32569;51.762;8.564;2022-12-07T02:34:49;45.93;;;28.87;;
15230;SDS011;32569;51.762;8.564;2022-12-07T02:37:27;49.87;;;31.73;;
15230;SDS011;32569;51.762;8.564;2022-12-07T02:40:09;44.23;;;30.73;;
15230;SDS011;32569;51.762;8.564;2022-12-07T02:42:42;42.50;;;28.77;;
15230;SDS011;32569;51.762;8.564;2022-12-07T02:45:13;43.00;;;28.57;;
15230;SDS011;32569;51.762;8.564;2022-12-07T02:47:44;41.27;;;26.37;;
15230;SDS011;32569;51.762;8.564;2022-12-07T02:50:14;38.40;;;24.80;;
15230;SDS011;32569;51.762;8.564;2022-12-07T02:52:43;38.07;;;25.57;;
15230;SDS011;32569;51.762;8.564;2022-12-07T02:55:10;41.43;;;25.90;;
15230;SDS011;32569;51.762;8.564;2022-12-07T02:57:44;37.43;;;23.33;;
15230;SDS011;32569;51.762;8.564;2022-12-07T03:00:20;36.03;;;23.90;;
15230;SDS011;32569;51.762;8.564;2022-12-07T03:02:50;32.03;;;22.40;;
15230;SDS011;32569;51.762;8.564;2022-12-07T03:08:29;35.97;;;21.50;;
15230;SDS011;32569;51.762;8.564;2022-12-07T03:11:03;37.57;;;22.93;;
15230;SDS011;32569;51.762;8.564;2022-12-07T03:13:34;32.40;;;20.63;;
15230;SDS011;32569;51.762;8.564;2022-12-07T03:16:08;31.90;;;21.50;;
15230;SDS011;32569;51.762;8.564;2022-12-07T03:18:40;30.67;;;20.53;;
15230;SDS011;32569;51.762;8.564;2022-12-07T03:21:13;28.27;;;19.87;;
15230;SDS011;32569;51.762;8.564;2022-12-07T03:23:44;29.63;;;19.47;;
15230;SDS011;32569;51.762;8.564;2022-12-07T03:26:17;31.90;;;20.10;;
15230;SDS011;32569;51.762;8.564;2022-12-07T03:28:47;27.83;;;18.77;;
15230;SDS011;32569;51.762;8.564;2022-12-07T03:31:19;30.00;;;19.43;;
15230;SDS011;32569;51.762;8.564;2022-12-07T03:33:52;25.90;;;17.80;;
15230;SDS011;32569;51.762;8.564;2022-12-07T03:36:29;26.00;;;18.00;;
15230;SDS011;32569;51.762;8.564;2022-12-07T03:39:02;27.93;;;17.57;;
15230;SDS011;32569;51.762;8.564;2022-12-07T03:41:37;27.07;;;16.87;;
15230;SDS011;32569;51.762;8.564;2022-12-07T03:44:06;27.63;;;18.03;;
15230;SDS011;32569;51.762;8.564;2022-12-07T03:46:37;28.63;;;17.83;;
15230;SDS011;32569;51.762;8.564;2022-12-07T03:49:10;27.80;;;18.40;;
15230;SDS011;32569;51.762;8.564;2022-12-07T03:51:44;27.70;;;18.67;;
15230;SDS011;32569;51.762;8.564;2022-12-07T03:54:15;29.40;;;18.13;;
15230;SDS011;32569;51.762;8.564;2022-12-07T03:56:48;25.90;;;17.73;;
15230;SDS011;32569;51.762;8.564;2022-12-07T03:59:16;24.27;;;17.07;;
15230;SDS011;32569;51.762;8.564;2022-12-07T04:01:51;25.07;;;17.63;;
15230;SDS011;32569;51.762;8.564;2022-12-07T04:04:19;25.60;;;16.47;;
15230;SDS011;32569;51.762;8.564;2022-12-07T04:06:46;26.63;;;16.63;;
15230;SDS011;32569;51.762;8.564;2022-12-07T04:09:13;23.43;;;16.83;;
15230;SDS011;32569;51.762;8.564;2022-12-07T04:11:40;25.80;;;17.30;;
15230;SDS011;32569;51.762;8.564;2022-12-07T04:14:07;25.30;;;16.13;;
15230;SDS011;32569;51.762;8.564;2022-12-07T04:16:47;22.33;;;15.87;;
15230;SDS011;32569;51.762;8.564;2022-12-07T04:19:16;24.80;;;15.83;;
15230;SDS011;32569;51.762;8.564;2022-12-07T04:21:44;19.30;;;14.27;;
15230;SDS011;32569;51.762;8.564;2022-12-07T04:24:11;22.20;;;15.87;;
15230;SDS011;32569;51.762;8.564;2022-12-07T04:26:38;19.13;;;14.13;;
15230;SDS011;32569;51.762;8.564;2022-12-07T04:29:05;20.50;;;14.47;;
15230;SDS011;32569;51.762;8.564;2022-12-07T04:31:32;21.60;;;14.13;;
15230;SDS011;32569;51.762;8.564;2022-12-07T04:34:01;20.90;;;14.03;;
15230;SDS011;32569;51.762;8.564;2022-12-07T04:36:29;23.57;;;14.73;;
15230;SDS011;32569;51.762;8.564;2022-12-07T04:38:56;22.13;;;15.00;;
15230;SDS011;32569;51.762;8.564;2022-12-07T04:41:23;23.70;;;15.07;;
15230;SDS011;32569;51.762;8.564;2022-12-07T04:43:53;23.47;;;14.50;;
15230;SDS011;32569;51.762;8.564;2022-12-07T04:46:21;18.57;;;14.07;;
15230;SDS011;32569;51.762;8.564;2022-12-07T04:48:48;22.20;;;14.80;;
15230;SDS011;32569;51.762;8.564;2022-12-07T04:51:18;18.40;;;14.10;;
15230;SDS011;32569;51.762;8.564;2022-12-07T04:53:47;19.83;;;14.67;;
15230;SDS011;32569;51.762;8.564;2022-12-07T04:56:14;19.47;;;14.93;;
15230;SDS011;32569;51.762;8.564;2022-12-07T04:58:42;21.07;;;14.60;;
15230;SDS011;32569;51.762;8.564;2022-12-07T05:01:09;20.90;;;15.07;;
15230;SDS011;32569;51.762;8.564;2022-12-07T05:03:37;23.63;;;13.73;;
15230;SDS011;32569;51.762;8.564;2022-12-07T05:06:04;20.90;;;14.57;;
15230;SDS011;32569;51.762;8.564;2022-12-07T05:08:33;19.50;;;13.97;;
15230;SDS011;32569;51.762;8.564;2022-12-07T05:11:00;22.77;;;14.70;;
15230;SDS011;32569;51.762;8.564;2022-12-07T05:13:27;21.23;;;14.40;;
15230;SDS011;32569;51.762;8.564;2022-12-07T05:15:54;22.03;;;14.30;;
15230;SDS011;32569;51.762;8.564;2022-12-07T05:18:21;22.70;;;15.43;;
15230;SDS011;32569;51.762;8.564;2022-12-07T05:20:48;23.57;;;15.40;;
15230;SDS011;32569;51.762;8.564;2022-12-07T05:23:16;20.40;;;15.60;;
15230;SDS011;32569;51.762;8.564;2022-12-07T05:25:44;19.67;;;15.00;;
15230;SDS011;32569;51.762;8.564;2022-12-07T05:28:11;22.87;;;15.57;;
15230;SDS011;32569;51.762;8.564;2022-12-07T05:30:38;23.80;;;14.63;;
15230;SDS011;32569;51.762;8.564;2022-12-07T05:33:05;21.63;;;15.87;;
15230;SDS011;32569;51.762;8.564;2022-12-07T05:35:32;23.87;;;15.73;;
15230;SDS011;32569;51.762;8.564;2022-12-07T05:37:58;21.90;;;14.93;;
15230;SDS011;32569;51.762;8.564;2022-12-07T05:40:25;21.97;;;15.40;;
15230;SDS011;32569;51.762;8.564;2022-12-07T05:42:53;18.70;;;14.83;;
15230;SDS011;32569;51.762;8.564;2022-12-07T05:45:19;23.33;;;15.57;;
15230;SDS011;32569;51.762;8.564;2022-12-07T05:47:46;21.87;;;15.63;;
15230;SDS011;32569;51.762;8.564;2022-12-07T05:50:12;18.47;;;14.73;;
15230;SDS011;32569;51.762;8.564;2022-12-07T05:52:39;21.97;;;17.57;;
15230;SDS011;32569;51.762;8.564;2022-12-07T05:55:06;20.60;;;15.00;;
15230;SDS011;32569;51.762;8.564;2022-12-07T05:57:33;26.30;;;17.37;;
15230;SDS011;32569;51.762;8.564;2022-12-07T06:00:02;24.87;;;16.70;;
15230;SDS011;32569;51.762;8.564;2022-12-07T06:02:28;25.10;;;18.10;;
15230;SDS011;32569;51.762;8.564;2022-12-07T06:04:56;23.03;;;17.50;;
15230;SDS011;32569;51.762;8.564;2022-12-07T06:07:23;24.10;;;18.30;;
15230;SDS011;32569;51.762;8.564;2022-12-07T06:09:50;24.93;;;17.40;;
15230;SDS011;32569;51.762;8.564;2022-12-07T06:12:17;22.40;;;18.27;;
15230;SDS011;32569;51.762;8.564;2022-12-07T06:15:05;23.43;;;16.57;;
15230;SDS011;32569;51.762;8.564;2022-12-07T06:17:32;26.93;;;18.80;;
15230;SDS011;32569;51.762;8.564;2022-12-07T06:20:00;31.27;;;24.17;;
15230;SDS011;32569;51.762;8.564;2022-12-07T06:22:28;32.97;;;22.60;;
15230;SDS011;32569;51.762;8.564;2022-12-07T06:24:55;29.27;;;24.63;;
15230;SDS011;32569;51.762;8.564;2022-12-07T06:27:21;24.67;;;20.77;;
15230;SDS011;32569;51.762;8.564;2022-12-07T06:29:48;24.13;;;17.10;;
15230;SDS011;32569;51.762;8.564;2022-12-07T06:32:16;22.33;;;17.00;;
15230;SDS011;32569;51.762;8.564;2022-12-07T06:34:43;24.77;;;16.03;;
15230;SDS011;32569;51.762;8.564;2022-12-07T06:37:11;23.73;;;17.07;;
15230;SDS011;32569;51.762;8.564;2022-12-07T06:39:38;24.70;;;17.63;;
15230;SDS011;32569;51.762;8.564;2022-12-07T06:42:05;22.27;;;17.00;;
15230;SDS011;32569;51.762;8.564;2022-12-07T06:44:32;26.73;;;17.33;;
15230;SDS011;32569;51.762;8.564;2022-12-07T06:46:58;22.00;;;16.43;;
15230;SDS011;32569;51.762;8.564;2022-12-07T06:49:27;20.97;;;15.80;;
15230;SDS011;32569;51.762;8.564;2022-12-07T06:51:53;19.40;;;15.93;;
15230;SDS011;32569;51.762;8.564;2022-12-07T06:54:22;22.60;;;17.10;;
15230;SDS011;32569;51.762;8.564;2022-12-07T06:56:49;24.97;;;18.10;;
15230;SDS011;32569;51.762;8.564;2022-12-07T06:59:15;23.67;;;18.17;;
15230;SDS011;32569;51.762;8.564;2022-12-07T07:01:42;22.10;;;17.33;;
15230;SDS011;32569;51.762;8.564;2022-12-07T07:04:09;23.07;;;18.23;;
15230;SDS011;32569;51.762;8.564;2022-12-07T07:06:37;21.10;;;15.67;;
15230;SDS011;32569;51.762;8.564;2022-12-07T07:09:04;22.37;;;16.63;;
15230;SDS011;32569;51.762;8.564;2022-12-07T07:11:32;24.13;;;16.30;;
15230;SDS011;32569;51.762;8.564;2022-12-07T07:13:58;19.93;;;14.67;;
15230;SDS011;32569;51.762;8.564;2022-12-07T07:16:27;19.00;;;14.50;;
15230;SDS011;32569;51.762;8.564;2022-12-07T07:18:54;22.57;;;14.07;;
15230;SDS011;32569;51.762;8.564;2022-12-07T07:21:22;17.80;;;13.73;;
15230;SDS011;32569;51.762;8.564;2022-12-07T07:23:50;17.80;;;13.07;;
15230;SDS011;32569;51.762;8.564;2022-12-07T07:26:17;18.50;;;13.03;;
15230;SDS011;32569;51.762;8.564;2022-12-07T07:28:44;19.93;;;12.17;;
15230;SDS011;32569;51.762;8.564;2022-12-07T07:31:11;19.87;;;12.50;;
15230;SDS011;32569;51.762;8.564;2022-12-07T07:33:38;17.10;;;13.00;;
15230;SDS011;32569;51.762;8.564;2022-12-07T07:36:05;17.03;;;12.43;;
15230;SDS011;32569;51.762;8.564;2022-12-07T07:38:32;16.77;;;12.43;;
15230;SDS011;32569;51.762;8.564;2022-12-07T07:41:00;16.93;;;12.20;;
15230;SDS011;32569;51.762;8.564;2022-12-07T07:43:27;17.60;;;12.20;;
15230;SDS011;32569;51.762;8.564;2022-12-07T07:45:54;19.37;;;12.07;;
15230;SDS011;32569;51.762;8.564;2022-12-07T07:48:20;18.07;;;12.57;;
15230;SDS011;32569;51.762;8.564;2022-12-07T07:50:50;14.27;;;11.67;;
15230;SDS011;32569;51.762;8.564;2022-12-07T07:53:18;15.30;;;11.10;;
15230;SDS011;32569;51.762;8.564;2022-12-07T07:55:49;18.57;;;12.30;;
15230;SDS011;32569;51.762;8.564;2022-12-07T07:58:19;20.60;;;12.23;;
15230;SDS011;32569;51.762;8.564;2022-12-07T08:00:46;18.27;;;11.77;;
15230;SDS011;32569;51.762;8.564;2022-12-07T08:03:12;15.13;;;11.83;;
15230;SDS011;32569;51.762;8.564;2022-12-07T08:05:39;19.83;;;12.47;;
15230;SDS011;32569;51.762;8.564;2022-12-07T08:08:06;18.37;;;12.43;;
15230;SDS011;32569;51.762;8.564;2022-12-07T08:10:33;19.57;;;11.57;;
15230;SDS011;32569;51.762;8.564;2022-12-07T08:13:00;17.47;;;11.73;;
15230;SDS011;32569;51.762;8.564;2022-12-07T08:15:41;19.63;;;12.57;;
15230;SDS011;32569;51.762;8.564;2022-12-07T08:18:12;20.77;;;12.40;;
15230;SDS011;32569;51.762;8.564;2022-12-07T08:20:41;16.30;;;11.77;;
15230;SDS011;32569;51.762;8.564;2022-12-07T08:23:09;17.23;;;11.47;;
15230;SDS011;32569;51.762;8.564;2022-12-07T08:25:37;19.97;;;11.93;;
15230;SDS011;32569;51.762;8.564;2022-12-07T08:28:04;14.57;;;11.33;;
15230;SDS011;32569;51.762;8.564;2022-12-07T08:30:32;15.87;;;11.30;;
15230;SDS011;32569;51.762;8.564;2022-12-07T08:33:00;16.90;;;11.50;;
15230;SDS011;32569;51.762;8.564;2022-12-07T08:35:27;18.30;;;11.57;;
15230;SDS011;32569;51.762;8.564;2022-12-07T08:37:54;14.40;;;10.27;;
15230;SDS011;32569;51.762;8.564;2022-12-07T08:40:22;18.37;;;10.10;;
15230;SDS011;32569;51.762;8.564;2022-12-07T08:42:50;16.17;;;9.97;;
15230;SDS011;32569;51.762;8.564;2022-12-07T08:45:17;17.70;;;10.00;;
15230;SDS011;32569;51.762;8.564;2022-12-07T08:47:45;15.40;;;9.73;;
15230;SDS011;32569;51.762;8.564;2022-12-07T08:50:18;13.07;;;8.87;;
15230;SDS011;32569;51.762;8.564;2022-12-07T08:52:46;18.60;;;10.10;;
15230;SDS011;32569;51.762;8.564;2022-12-07T08:55:17;16.08;;;11.27;;
15230;SDS011;32569;51.762;8.564;2022-12-07T08:57:44;15.63;;;9.60;;
15230;SDS011;32569;51.762;8.564;2022-12-07T09:00:11;13.03;;;8.77;;
15230;SDS011;32569;51.762;8.564;2022-12-07T09:02:39;12.47;;;8.20;;
15230;SDS011;32569;51.762;8.564;2022-12-07T09:05:07;13.47;;;8.03;;
15230;SDS011;32569;51.762;8.564;2022-12-07T09:07:36;10.37;;;7.83;;
15230;SDS011;32569;51.762;8.564;2022-12-07T09:10:05;13.17;;;8.17;;
15230;SDS011;32569;51.762;8.564;2022-12-07T09:12:32;16.10;;;8.10;;
15230;SDS011;32569;51.762;8.564;2022-12-07T09:14:59;12.30;;;8.37;;
15230;SDS011;32569;51.762;8.564;2022-12-07T09:17:26;12.47;;;8.17;;
15230;SDS011;32569;51.762;8.564;2022-12-07T09:19:54;10.40;;;7.60;;
15230;SDS011;32569;51.762;8.564;2022-12-07T09:22:21;10.43;;;8.10;;
15230;SDS011;32569;51.762;8.564;2022-12-07T09:24:49;11.70;;;6.80;;
15230;SDS011;32569;51.762;8.564;2022-12-07T09:27:16;11.30;;;7.57;;
15230;SDS011;32569;51.762;8.564;2022-12-07T09:29:43;15.13;;;7.30;;
15230;SDS011;32569;51.762;8.564;2022-12-07T09:32:10;12.37;;;7.27;;
15230;SDS011;32569;51.762;8.564;2022-12-07T09:34:37;9.37;;;7.53;;
15230;SDS011;32569;51.762;8.564;2022-12-07T09:37:03;11.47;;;8.07;;
15230;SDS011;32569;51.762;8.564;2022-12-07T09:39:31;12.30;;;8.23;;
15230;SDS011;32569;51.762;8.564;2022-12-07T09:41:59;11.93;;;7.60;;
15230;SDS011;32569;51.762;8.564;2022-12-07T09:44:29;13.53;;;8.13;;
15230;SDS011;32569;51.762;8.564;2022-12-07T09:46:56;10.67;;;8.17;;
15230;SDS011;32569;51.762;8.564;2022-12-07T09:49:25;13.13;;;8.23;;
15230;SDS011;32569;51.762;8.564;2022-12-07T09:52:01;9.90;;;7.50;;
15230;SDS011;32569;51.762;8.564;2022-12-07T09:54:42;14.60;;;8.40;;
15230;SDS011;32569;51.762;8.564;2022-12-07T09:57:14;10.70;;;8.67;;
15230;SDS011;32569;51.762;8.564;2022-12-07T09:59:42;14.20;;;8.77;;
15230;SDS011;32569;51.762;8.564;2022-12-07T10:02:19;12.03;;;8.73;;
15230;SDS011;32569;51.762;8.564;2022-12-07T10:04:59;13.53;;;9.33;;
15230;SDS011;32569;51.762;8.564;2022-12-07T10:07:26;17.13;;;9.47;;
15230;SDS011;32569;51.762;8.564;2022-12-07T10:09:52;14.13;;;8.47;;
15230;SDS011;32569;51.762;8.564;2022-12-07T10:12:20;11.97;;;8.33;;
15230;SDS011;32569;51.762;8.564;2022-12-07T10:14:54;11.40;;;8.60;;
15230;SDS011;32569;51.762;8.564;2022-12-07T10:17:31;10.20;;;7.37;;
15230;SDS011;32569;51.762;8.564;2022-12-07T10:20:20;15.90;;;7.67;;
15230;SDS011;32569;51.762;8.564;2022-12-07T10:22:53;10.50;;;7.50;;
15230;SDS011;32569;51.762;8.564;2022-12-07T10:25:22;12.20;;;7.43;;
15230;SDS011;32569;51.762;8.564;2022-12-07T10:28:00;11.90;;;7.07;;
15230;SDS011;32569;51.762;8.564;2022-12-07T10:30:29;10.03;;;7.30;;
15230;SDS011;32569;51.762;8.564;2022-12-07T10:32:57;10.07;;;6.93;;
15230;SDS011;32569;51.762;8.564;2022-12-07T10:35:25;10.27;;;7.37;;
15230;SDS011;32569;51.762;8.564;2022-12-07T10:37:54;8.70;;;6.47;;
15230;SDS011;32569;51.762;8.564;2022-12-07T10:40:27;9.30;;;6.50;;
15230;SDS011;32569;51.762;8.564;2022-12-07T10:43:05;9.80;;;6.67;;
15230;SDS011;32569;51.762;8.564;2022-12-07T10:45:45;10.30;;;7.20;;
15230;SDS011;32569;51.762;8.564;2022-12-07T10:48:40;9.90;;;6.23;;
15230;SDS011;32569;51.762;8.564;2022-12-07T10:51:19;9.87;;;6.20;;
15230;SDS011;32569;51.762;8.564;2022-12-07T10:53:57;11.10;;;6.60;;
15230;SDS011;32569;51.762;8.564;2022-12-07T10:56:42;7.77;;;5.53;;
15230;SDS011;32569;51.762;8.564;2022-12-07T10:59:35;10.40;;;6.20;;
15230;SDS011;32569;51.762;8.564;2022-12-07T11:02:15;12.17;;;6.33;;
15230;SDS011;32569;51.762;8.564;2022-12-07T11:04:55;7.53;;;6.10;;
15230;SDS011;32569;51.762;8.564;2022-12-07T11:07:35;8.63;;;6.57;;
15230;SDS011;32569;51.762;8.564;2022-12-07T11:10:11;8.13;;;5.50;;
15230;SDS011;32569;51.762;8.564;2022-12-07T11:12:47;8.20;;;6.50;;
15230;SDS011;32569;51.762;8.564;2022-12-07T11:15:22;10.13;;;6.57;;
15230;SDS011;32569;51.762;8.564;2022-12-07T11:17:54;8.87;;;6.70;;
15230;SDS011;32569;51.762;8.564;2022-12-07T11:20:29;10.80;;;6.13;;
15230;SDS011;32569;51.762;8.564;2022-12-07T11:23:06;9.83;;;6.57;;
15230;SDS011;32569;51.762;8.564;2022-12-07T11:25:46;10.63;;;6.50;;
15230;SDS011;32569;51.762;8.564;2022-12-07T11:28:21;12.60;;;7.70;;
15230;SDS011;32569;51.762;8.564;2022-12-07T11:31:02;9.77;;;6.77;;
15230;SDS011;32569;51.762;8.564;2022-12-07T11:33:37;10.37;;;6.10;;
15230;SDS011;32569;51.762;8.564;2022-12-07T11:36:13;8.77;;;5.67;;
15230;SDS011;32569;51.762;8.564;2022-12-07T11:38:53;9.30;;;6.13;;
15230;SDS011;32569;51.762;8.564;2022-12-07T11:41:24;7.87;;;6.10;;
15230;SDS011;32569;51.762;8.564;2022-12-07T11:43:56;7.80;;;5.60;;
15230;SDS011;32569;51.762;8.564;2022-12-07T11:46:33;7.87;;;4.87;;
15230;SDS011;32569;51.762;8.564;2022-12-07T11:49:12;9.13;;;5.60;;
15230;SDS011;32569;51.762;8.564;2022-12-07T11:51:45;8.63;;;5.03;;
15230;SDS011;32569;51.762;8.564;2022-12-07T11:54:19;9.17;;;4.73;;
15230;SDS011;32569;51.762;8.564;2022-12-07T11:56:50;7.40;;;5.00;;
15230;SDS011;32569;51.762;8.564;2022-12-07T11:59:22;6.67;;;4.47;;
15230;SDS011;32569;51.762;8.564;2022-12-07T12:01:58;6.47;;;4.60;;
15230;SDS011;32569;51.762;8.564;2022-12-07T12:04:41;6.97;;;4.80;;
15230;SDS011;32569;51.762;8.564;2022-12-07T12:07:17;7.40;;;4.50;;
15230;SDS011;32569;51.762;8.564;2022-12-07T12:09:48;10.33;;;4.80;;
15230;SDS011;32569;51.762;8.564;2022-12-07T12:12:25;6.60;;;3.73;;
15230;SDS011;32569;51.762;8.564;2022-12-07T12:15:08;6.50;;;4.17;;
15230;SDS011;32569;51.762;8.564;2022-12-07T12:17:59;8.87;;;4.30;;
15230;SDS011;32569;51.762;8.564;2022-12-07T12:20:43;10.33;;;4.63;;
15230;SDS011;32569;51.762;8.564;2022-12-07T12:23:15;7.90;;;5.20;;
15230;SDS011;32569;51.762;8.564;2022-12-07T12:25:45;7.67;;;5.30;;
15230;SDS011;32569;51.762;8.564;2022-12-07T12:28:18;7.57;;;4.70;;
15230;SDS011;32569;51.762;8.564;2022-12-07T12:31:04;5.17;;;4.67;;
15230;SDS011;32569;51.762;8.564;2022-12-07T12:33:33;6.70;;;4.73;;
15230;SDS011;32569;51.762;8.564;2022-12-07T12:36:16;6.67;;;5.40;;
15230;SDS011;32569;51.762;8.564;2022-12-07T12:38:49;6.60;;;5.03;;
15230;SDS011;32569;51.762;8.564;2022-12-07T12:44:41;7.80;;;4.30;;
15230;SDS011;32569;51.762;8.564;2022-12-07T12:47:43;5.13;;;4.53;;
15230;SDS011;32569;51.762;8.564;2022-12-07T12:50:25;6.40;;;4.50;;
15230;SDS011;32569;51.762;8.564;2022-12-07T12:52:58;7.30;;;4.40;;
15230;SDS011;32569;51.762;8.564;2022-12-07T12:55:49;7.80;;;4.47;;
15230;SDS011;32569;51.762;8.564;2022-12-07T12:58:42;8.47;;;5.20;;
15230;SDS011;32569;51.762;8.564;2022-12-07T13:01:33;7.53;;;5.07;;
15230;SDS011;32569;51.762;8.564;2022-12-07T13:04:21;9.70;;;6.57;;
15230;SDS011;32569;51.762;8.564;2022-12-07T13:06:53;11.80;;;5.40;;
15230;SDS011;32569;51.762;8.564;2022-12-07T13:09:21;8.53;;;5.33;;
15230;SDS011;32569;51.762;8.564;2022-12-07T13:11:50;7.90;;;5.20;;
15230;SDS011;32569;51.762;8.564;2022-12-07T13:20:45;9.07;;;4.53;;
15230;SDS011;32569;51.762;8.564;2022-12-07T13:23:16;5.50;;;4.00;;
15230;SDS011;32569;51.762;8.564;2022-12-07T13:25:51;6.70;;;5.30;;
15230;SDS011;32569;51.762;8.564;2022-12-07T13:28:21;6.43;;;4.63;;
15230;SDS011;32569;51.762;8.564;2022-12-07T13:31:03;6.27;;;4.57;;
15230;SDS011;32569;51.762;8.564;2022-12-07T13:33:37;5.90;;;4.50;;
15230;SDS011;32569;51.762;8.564;2022-12-07T13:36:04;8.50;;;5.27;;
15230;SDS011;32569;51.762;8.564;2022-12-07T13:38:47;8.27;;;4.57;;
15230;SDS011;32569;51.762;8.564;2022-12-07T13:41:19;8.33;;;6.07;;
15230;SDS011;32569;51.762;8.564;2022-12-07T13:43:52;9.43;;;4.70;;
15230;SDS011;32569;51.762;8.564;2022-12-07T13:46:23;5.43;;;4.33;;
15230;SDS011;32569;51.762;8.564;2022-12-07T13:48:53;6.70;;;4.67;;
15230;SDS011;32569;51.762;8.564;2022-12-07T13:51:21;7.30;;;4.47;;
15230;SDS011;32569;51.762;8.564;2022-12-07T13:53:52;10.07;;;4.87;;
15230;SDS011;32569;51.762;8.564;2022-12-07T13:56:22;5.53;;;4.63;;
15230;SDS011;32569;51.762;8.564;2022-12-07T13:58:54;5.37;;;3.17;;
15230;SDS011;32569;51.762;8.564;2022-12-07T14:01:21;8.90;;;3.60;;
15230;SDS011;32569;51.762;8.564;2022-12-07T14:03:48;6.40;;;3.90;;
15230;SDS011;32569;51.762;8.564;2022-12-07T14:06:22;9.30;;;4.40;;
15230;SDS011;32569;51.762;8.564;2022-12-07T14:09:06;7.53;;;3.73;;
15230;SDS011;32569;51.762;8.564;2022-12-07T14:11:35;5.23;;;4.23;;
15230;SDS011;32569;51.762;8.564;2022-12-07T14:14:03;6.20;;;4.60;;
15230;SDS011;32569;51.762;8.564;2022-12-07T14:16:33;6.60;;;4.23;;
15230;SDS011;32569;51.762;8.564;2022-12-07T14:22:08;9.67;;;4.17;;
15230;SDS011;32569;51.762;8.564;2022-12-07T14:24:57;5.47;;;3.77;;
15230;SDS011;32569;51.762;8.564;2022-12-07T14:27:30;8.63;;;4.27;;
15230;SDS011;32569;51.762;8.564;2022-12-07T14:30:03;9.00;;;4.80;;
15230;SDS011;32569;51.762;8.564;2022-12-07T14:32:31;5.73;;;3.50;;
15230;SDS011;32569;51.762;8.564;2022-12-07T14:35:01;6.63;;;3.73;;
15230;SDS011;32569;51.762;8.564;2022-12-07T14:37:35;6.37;;;4.03;;
15230;SDS011;32569;51.762;8.564;2022-12-07T14:40:05;6.80;;;4.57;;
15230;SDS011;32569;51.762;8.564;2022-12-07T14:42:33;6.87;;;5.40;;
15230;SDS011;32569;51.762;8.564;2022-12-07T14:45:01;8.67;;;4.73;;
15230;SDS011;32569;51.762;8.564;2022-12-07T14:47:30;12.17;;;5.03;;
15230;SDS011;32569;51.762;8.564;2022-12-07T14:49:56;8.30;;;4.80;;
15230;SDS011;32569;51.762;8.564;2022-12-07T14:52:25;11.53;;;5.03;;
15230;SDS011;32569;51.762;8.564;2022-12-07T14:54:55;4.77;;;3.90;;
15230;SDS011;32569;51.762;8.564;2022-12-07T14:57:23;8.90;;;5.00;;
15230;SDS011;32569;51.762;8.564;2022-12-07T14:59:50;11.23;;;5.97;;
15230;SDS011;32569;51.762;8.564;2022-12-07T15:02:17;10.50;;;5.70;;
15230;SDS011;32569;51.762;8.564;2022-12-07T15:04:44;8.63;;;6.20;;
15230;SDS011;32569;51.762;8.564;2022-12-07T15:07:12;9.43;;;5.83;;
15230;SDS011;32569;51.762;8.564;2022-12-07T15:09:44;9.93;;;5.20;;
15230;SDS011;32569;51.762;8.564;2022-12-07T15:12:10;8.27;;;5.30;;